METAR Data
IDs: Format: Raw Decoded Include TAF

Data at: 1340 UTC 26 Feb 2021

EDDN 261320Z 29011KT 9999 FEW045 14/05 Q1028 NOSIG